createdAt,value
2023-01-08T00:01:07.573Z,8.98
2023-01-08T00:03:36.360Z,9.60
2023-01-08T00:06:04.992Z,10.07
2023-01-08T00:08:32.549Z,9.75
2023-01-08T00:10:59.912Z,9.75
2023-01-08T00:13:26.899Z,10.02
2023-01-08T00:15:54.155Z,9.43
2023-01-08T00:18:21.583Z,8.98
2023-01-08T00:20:49.334Z,9.45
2023-01-08T00:23:18.903Z,9.35
2023-01-08T00:25:46.853Z,9.85
2023-01-08T00:28:15.157Z,9.30
2023-01-08T00:30:42.203Z,8.90
2023-01-08T00:33:09.543Z,9.30
2023-01-08T00:35:38.436Z,10.05
2023-01-08T00:38:05.416Z,10.10
2023-01-08T00:40:34.224Z,10.73
2023-01-08T00:43:01.397Z,10.20
2023-01-08T00:45:29.048Z,9.93
2023-01-08T00:47:55.662Z,9.65
2023-01-08T00:50:22.254Z,10.73
2023-01-08T00:52:48.919Z,10.70
2023-01-08T00:55:16.692Z,10.75
2023-01-08T00:57:43.562Z,9.93
2023-01-08T01:00:14.150Z,9.70
2023-01-08T01:02:41.930Z,11.00
2023-01-08T01:05:10.794Z,10.65
2023-01-08T01:07:37.548Z,11.38
2023-01-08T01:10:04.695Z,10.25
2023-01-08T01:12:31.308Z,9.63
2023-01-08T01:14:57.940Z,10.18
2023-01-08T01:17:25.059Z,9.98
2023-01-08T01:19:51.689Z,9.93
2023-01-08T01:22:18.314Z,9.75
2023-01-08T01:24:44.905Z,10.95
2023-01-08T01:27:11.515Z,11.05
2023-01-08T01:29:38.217Z,11.23
2023-01-08T01:32:06.154Z,11.73
2023-01-08T01:34:32.821Z,10.77
2023-01-08T01:36:59.470Z,11.13
2023-01-08T01:39:26.114Z,10.05
2023-01-08T01:41:53.478Z,10.70
2023-01-08T01:44:35.390Z,10.40
2023-01-08T01:47:11.024Z,10.63
2023-01-08T01:49:39.238Z,11.02
2023-01-08T01:52:08.623Z,10.88
2023-01-08T01:54:36.120Z,11.18
2023-01-08T01:57:03.464Z,11.43
2023-01-08T01:59:30.051Z,10.57
2023-01-08T02:01:58.161Z,10.50
2023-01-08T02:04:24.873Z,11.73
2023-01-08T02:07:06.428Z,11.55
2023-01-08T02:09:58.691Z,11.32
2023-01-08T02:12:34.457Z,11.27
2023-01-08T02:15:22.122Z,11.60
2023-01-08T02:18:08.528Z,11.80
2023-01-08T02:20:51.244Z,12.00
2023-01-08T02:23:36.390Z,11.88
2023-01-08T02:26:09.112Z,13.23
2023-01-08T02:28:41.827Z,13.00
2023-01-08T02:31:08.861Z,14.10
2023-01-08T02:33:35.889Z,13.25
2023-01-08T02:36:24.622Z,14.30
2023-01-08T02:39:07.609Z,14.00
2023-01-08T02:41:58.717Z,14.32
2023-01-08T02:44:45.959Z,13.98
2023-01-08T02:47:28.974Z,14.60
2023-01-08T02:50:11.433Z,13.43
2023-01-08T02:52:45.176Z,13.00
2023-01-08T02:55:13.084Z,14.10
2023-01-08T02:57:40.049Z,13.95
2023-01-08T03:00:07.496Z,14.10
2023-01-08T03:02:37.480Z,13.50
2023-01-08T03:05:13.147Z,13.00
2023-01-08T03:07:39.832Z,13.30
2023-01-08T03:10:08.874Z,13.65
2023-01-08T03:12:49.109Z,13.95
2023-01-08T03:15:24.337Z,13.25
2023-01-08T03:17:54.540Z,12.05
2023-01-08T03:20:25.089Z,12.32
2023-01-08T03:22:56.530Z,13.20
2023-01-08T03:25:26.431Z,13.07
2023-01-08T03:27:57.968Z,13.02
2023-01-08T03:30:25.745Z,12.32
2023-01-08T03:32:54.802Z,12.88
2023-01-08T03:35:24.675Z,12.35
2023-01-08T03:37:58.857Z,12.43
2023-01-08T03:40:32.302Z,12.70
2023-01-08T03:42:59.090Z,11.23
2023-01-08T03:45:27.843Z,11.00
2023-01-08T03:47:55.601Z,12.80
2023-01-08T03:50:26.589Z,13.70
2023-01-08T03:52:53.230Z,11.82
2023-01-08T03:55:20.982Z,12.38
2023-01-08T03:57:47.621Z,11.63
2023-01-08T04:00:14.840Z,12.63
2023-01-08T04:02:42.580Z,11.85
2023-01-08T04:05:10.432Z,11.32
2023-01-08T04:07:37.018Z,12.40
2023-01-08T04:10:03.844Z,12.27
2023-01-08T04:12:30.412Z,11.70
2023-01-08T04:14:56.998Z,11.38
2023-01-08T04:17:23.599Z,12.02
2023-01-08T04:19:50.202Z,11.70
2023-01-08T04:22:16.753Z,12.63
2023-01-08T04:24:43.384Z,11.23
2023-01-08T04:27:09.988Z,13.52
2023-01-08T04:29:36.590Z,11.90
2023-01-08T04:32:03.229Z,12.98
2023-01-08T04:34:29.866Z,12.45
2023-01-08T04:36:56.515Z,12.20
2023-01-08T04:39:23.182Z,12.55
2023-01-08T04:41:49.817Z,12.20
2023-01-08T04:44:16.509Z,12.68
2023-01-08T04:46:43.122Z,12.27
2023-01-08T04:49:11.028Z,11.55
2023-01-08T04:51:37.656Z,13.95
2023-01-08T04:54:04.241Z,14.93
2023-01-08T04:56:31.470Z,15.98
2023-01-08T04:58:58.891Z,16.63
2023-01-08T05:01:27.652Z,16.33
2023-01-08T05:03:56.631Z,16.80
2023-01-08T05:06:25.980Z,17.27
2023-01-08T05:08:52.778Z,15.98
2023-01-08T05:11:19.429Z,16.30
2023-01-08T05:13:51.032Z,16.25
2023-01-08T05:16:19.147Z,15.82
2023-01-08T05:18:46.156Z,15.50
2023-01-08T05:21:13.866Z,15.55
2023-01-08T05:23:44.088Z,15.88
2023-01-08T05:26:10.660Z,15.88
2023-01-08T05:28:37.230Z,15.18
2023-01-08T05:31:03.921Z,15.73
2023-01-08T05:33:30.664Z,16.45
2023-01-08T05:35:57.319Z,15.40
2023-01-08T05:38:23.973Z,16.10
2023-01-08T05:40:54.401Z,16.15
2023-01-08T05:43:21.080Z,16.25
2023-01-08T05:45:47.932Z,17.42
2023-01-08T05:48:14.562Z,16.77
2023-01-08T05:50:41.170Z,17.00
2023-01-08T05:53:09.071Z,17.58
2023-01-08T05:55:36.400Z,18.52
2023-01-08T05:58:04.995Z,16.50
2023-01-08T06:00:33.591Z,18.23
2023-01-08T06:03:00.251Z,18.08
2023-01-08T06:05:26.920Z,18.52
2023-01-08T06:07:53.518Z,19.35
2023-01-08T06:10:20.270Z,17.45
2023-01-08T06:12:50.138Z,17.10
2023-01-08T06:15:19.966Z,22.77
2023-01-08T06:17:46.493Z,17.55
2023-01-08T06:20:13.117Z,18.70
2023-01-08T06:22:39.645Z,16.75
2023-01-08T06:25:06.685Z,16.98
2023-01-08T06:27:33.250Z,17.30
2023-01-08T06:29:59.856Z,17.98
2023-01-08T06:32:26.429Z,18.52
2023-01-08T06:34:53.000Z,18.73
2023-01-08T06:37:19.582Z,18.70
2023-01-08T06:39:46.226Z,19.67
2023-01-08T06:42:12.841Z,19.35
2023-01-08T06:44:39.440Z,17.60
2023-01-08T06:47:05.999Z,18.73
2023-01-08T06:49:32.570Z,19.38
2023-01-08T06:51:59.215Z,18.85
2023-01-08T06:54:25.789Z,19.13
2023-01-08T06:56:54.418Z,20.30
2023-01-08T06:59:21.954Z,20.58
2023-01-08T07:01:48.912Z,19.10
2023-01-08T07:04:15.678Z,19.33
2023-01-08T07:06:42.274Z,20.77
2023-01-08T07:09:13.169Z,20.48
2023-01-08T07:11:40.675Z,18.75
2023-01-08T07:14:07.501Z,19.17
2023-01-08T07:16:34.163Z,19.25
2023-01-08T07:19:00.787Z,19.42
2023-01-08T07:21:27.465Z,18.50
2023-01-08T07:23:54.154Z,20.48
2023-01-08T07:26:20.697Z,18.60
2023-01-08T07:28:47.354Z,20.08
2023-01-08T07:31:14.061Z,20.48
2023-01-08T07:33:40.720Z,19.48
2023-01-08T07:36:07.968Z,19.27
2023-01-08T07:38:34.665Z,20.67
2023-01-08T07:41:01.222Z,18.08
2023-01-08T07:43:30.068Z,19.33
2023-01-08T07:45:57.718Z,18.67
2023-01-08T07:48:24.408Z,19.70
2023-01-08T07:50:51.075Z,20.55
2023-01-08T07:53:17.952Z,19.25
2023-01-08T07:55:45.191Z,19.73
2023-01-08T07:58:13.856Z,18.90
2023-01-08T08:00:40.828Z,18.05
2023-01-08T08:03:11.485Z,18.58
2023-01-08T08:05:38.726Z,18.30
2023-01-08T08:08:10.569Z,16.70
2023-01-08T08:10:38.115Z,16.42
2023-01-08T08:13:04.847Z,15.80
2023-01-08T08:15:31.496Z,16.02
2023-01-08T08:17:58.078Z,14.40
2023-01-08T08:20:25.378Z,13.63
2023-01-08T08:22:52.155Z,14.07
2023-01-08T08:25:19.080Z,13.15
2023-01-08T08:27:45.792Z,13.00
2023-01-08T08:30:13.161Z,12.00
2023-01-08T08:32:39.774Z,11.48
2023-01-08T08:35:07.005Z,12.20
2023-01-08T08:37:33.687Z,11.35
2023-01-08T08:40:00.313Z,11.70
2023-01-08T08:42:26.938Z,11.68
2023-01-08T08:44:53.535Z,11.02
2023-01-08T08:47:20.159Z,11.68
2023-01-08T08:49:46.770Z,10.30
2023-01-08T08:52:13.396Z,11.25
2023-01-08T08:54:41.659Z,11.35
2023-01-08T08:57:10.270Z,10.60
2023-01-08T08:59:37.405Z,11.65
2023-01-08T09:02:04.949Z,12.38
2023-01-08T09:04:33.044Z,10.25
2023-01-08T09:07:00.289Z,10.30
2023-01-08T09:09:27.445Z,12.43
2023-01-08T09:11:54.541Z,12.65
2023-01-08T09:14:21.650Z,11.52
2023-01-08T09:16:48.316Z,12.38
2023-01-08T09:19:15.053Z,11.30
2023-01-08T09:21:41.822Z,11.13
2023-01-08T09:24:09.061Z,10.90
2023-01-08T09:26:35.766Z,11.43
2023-01-08T09:29:05.719Z,10.88
2023-01-08T09:31:49.962Z,10.45
2023-01-08T09:34:18.522Z,11.60
2023-01-08T09:36:45.129Z,10.60
2023-01-08T09:39:11.743Z,10.63
2023-01-08T09:41:43.761Z,11.07
2023-01-08T09:44:16.261Z,11.60
2023-01-08T09:46:43.009Z,10.13
2023-01-08T09:49:17.236Z,11.60
2023-01-08T09:51:43.904Z,11.00
2023-01-08T09:54:15.382Z,10.73
2023-01-08T09:56:42.435Z,11.05
2023-01-08T09:59:14.647Z,11.70
2023-01-08T10:01:41.918Z,10.88
2023-01-08T10:04:17.774Z,11.00
2023-01-08T10:06:54.275Z,11.45
2023-01-08T10:11:53.442Z,10.57
2023-01-08T10:14:27.743Z,11.98
2023-01-08T10:17:05.870Z,11.27
2023-01-08T10:19:40.589Z,11.70
2023-01-08T10:22:15.863Z,12.15
2023-01-08T10:24:43.294Z,13.68
2023-01-08T10:27:17.716Z,13.27
2023-01-08T10:29:44.505Z,12.35
2023-01-08T10:32:14.841Z,12.55
2023-01-08T10:34:57.037Z,14.15
2023-01-08T10:37:42.471Z,14.73
2023-01-08T10:40:34.032Z,12.27
2023-01-08T10:43:15.673Z,11.45
2023-01-08T10:45:45.336Z,11.82
2023-01-08T10:48:18.307Z,12.98
2023-01-08T10:50:44.950Z,12.23
2023-01-08T10:53:29.072Z,12.52
2023-01-08T10:56:05.388Z,12.25
2023-01-08T10:58:42.176Z,14.55
2023-01-08T11:01:16.229Z,12.82
2023-01-08T11:03:43.083Z,12.82
2023-01-08T11:06:12.297Z,13.10
2023-01-08T11:08:39.203Z,12.60
2023-01-08T11:11:10.157Z,14.52
2023-01-08T11:13:36.768Z,12.63
2023-01-08T11:16:04.615Z,13.82
2023-01-08T11:18:31.377Z,13.77
2023-01-08T11:21:10.383Z,14.65
2023-01-08T11:23:37.093Z,13.35
2023-01-08T11:26:22.081Z,13.90
2023-01-08T11:29:07.654Z,12.65
2023-01-08T11:31:43.597Z,12.75
2023-01-08T11:34:40.792Z,13.18
2023-01-08T11:37:21.635Z,12.60
2023-01-08T11:39:48.934Z,13.88
2023-01-08T11:42:47.188Z,13.63
2023-01-08T11:45:42.913Z,12.50
2023-01-08T11:48:10.568Z,13.93
2023-01-08T11:50:50.116Z,13.70
2023-01-08T11:53:16.677Z,13.60
2023-01-08T11:55:54.989Z,14.00
2023-01-08T11:58:40.097Z,14.05
2023-01-08T12:01:31.066Z,13.25
2023-01-08T12:04:13.975Z,13.68
2023-01-08T12:06:48.525Z,14.27
2023-01-08T12:09:54.302Z,14.18
2023-01-08T12:12:51.753Z,13.57
2023-01-08T12:15:30.324Z,14.55
2023-01-08T12:18:20.054Z,13.27
2023-01-08T12:20:59.079Z,12.52
2023-01-08T12:23:40.938Z,14.40
2023-01-08T12:26:22.826Z,14.32
2023-01-08T12:28:52.431Z,13.73
2023-01-08T12:31:35.373Z,13.50
2023-01-08T12:34:10.783Z,13.80
2023-01-08T12:36:43.860Z,10.93
2023-01-08T12:39:17.595Z,11.68
2023-01-08T12:41:46.961Z,11.35
2023-01-08T12:44:22.668Z,11.65
2023-01-08T12:46:50.848Z,12.80
2023-01-08T12:49:23.714Z,11.30
2023-01-08T12:52:09.446Z,12.10
2023-01-08T12:54:59.394Z,12.50
2023-01-08T12:57:41.443Z,11.63
2023-01-08T13:00:19.856Z,11.95
2023-01-08T13:02:53.800Z,11.43
2023-01-08T13:05:20.353Z,12.18
2023-01-08T13:07:49.888Z,12.10
2023-01-08T13:10:39.029Z,12.63
2023-01-08T13:13:08.383Z,11.57
2023-01-08T13:15:36.133Z,12.10
2023-01-08T13:18:15.793Z,12.88
2023-01-08T13:20:42.811Z,12.95
2023-01-08T13:23:25.729Z,11.55
2023-01-08T13:25:54.734Z,12.57
2023-01-08T13:28:31.583Z,13.50
2023-01-08T13:31:28.173Z,13.00
2023-01-08T13:33:55.887Z,14.10
2023-01-08T13:36:26.214Z,13.25
2023-01-08T13:39:21.756Z,12.82
2023-01-08T13:42:13.958Z,12.18
2023-01-08T13:44:47.189Z,11.50
2023-01-08T13:47:33.209Z,12.07
2023-01-08T13:50:04.480Z,11.00
2023-01-08T13:55:51.089Z,11.75
2023-01-08T13:58:30.826Z,11.48
2023-01-08T14:01:00.079Z,12.00
2023-01-08T14:03:29.242Z,11.25
2023-01-08T14:06:26.679Z,10.63
2023-01-08T14:09:01.880Z,11.80
2023-01-08T14:11:33.285Z,11.77
2023-01-08T14:13:59.968Z,10.10
2023-01-08T14:16:26.768Z,11.90
2023-01-08T14:19:01.339Z,11.30
2023-01-08T14:21:28.029Z,9.68
2023-01-08T14:23:54.942Z,10.05
2023-01-08T14:26:38.652Z,10.80
2023-01-08T14:29:16.185Z,9.90
2023-01-08T14:31:54.321Z,9.98
2023-01-08T14:34:23.546Z,9.50
2023-01-08T14:36:51.832Z,10.00
2023-01-08T14:39:25.419Z,10.10
2023-01-08T14:42:10.848Z,10.00
2023-01-08T14:44:42.031Z,9.98
2023-01-08T14:47:18.387Z,9.40
2023-01-08T14:49:51.660Z,10.18
2023-01-08T14:52:21.218Z,10.35
2023-01-08T14:54:52.456Z,9.38
2023-01-08T14:57:20.096Z,9.90
2023-01-08T14:59:55.076Z,10.65
2023-01-08T15:02:27.938Z,11.00
2023-01-08T15:05:04.451Z,9.88
2023-01-08T15:10:01.313Z,28.58
2023-01-08T15:12:31.570Z,18.60
2023-01-08T15:15:12.630Z,14.40
2023-01-08T15:17:40.887Z,13.55
2023-01-08T15:20:22.749Z,14.07
2023-01-08T15:22:52.649Z,15.57
2023-01-08T15:25:48.333Z,13.88
2023-01-08T15:28:15.775Z,15.07
2023-01-08T15:30:46.429Z,14.15
2023-01-08T15:33:23.631Z,15.95
2023-01-08T15:35:51.808Z,18.42
2023-01-08T15:38:23.909Z,20.65
2023-01-08T15:40:53.277Z,21.15
2023-01-08T15:43:20.177Z,14.48
2023-01-08T15:45:50.089Z,16.27
2023-01-08T15:48:16.754Z,15.52
2023-01-08T15:50:44.706Z,14.27
2023-01-08T15:53:13.344Z,15.48
2023-01-08T15:55:43.413Z,15.57
2023-01-08T15:58:12.231Z,16.90
2023-01-08T16:00:40.547Z,17.00
2023-01-08T16:03:08.842Z,17.80
2023-01-08T16:05:36.643Z,17.65
2023-01-08T16:08:20.002Z,19.65
2023-01-08T16:10:53.480Z,18.10
2023-01-08T16:13:31.877Z,18.75
2023-01-08T16:16:11.228Z,19.02
2023-01-08T16:18:41.468Z,19.27
2023-01-08T16:21:12.448Z,18.55
2023-01-08T16:24:21.338Z,20.63
2023-01-08T16:26:52.711Z,19.65
2023-01-08T16:29:19.388Z,21.10
2023-01-08T16:31:47.589Z,19.02
2023-01-08T16:34:15.526Z,19.77
2023-01-08T16:36:42.116Z,18.95
2023-01-08T16:39:09.099Z,19.63
2023-01-08T16:41:36.696Z,19.52
2023-01-08T16:44:03.580Z,21.52
2023-01-08T16:46:30.185Z,19.85
2023-01-08T16:48:56.816Z,19.98
2023-01-08T16:51:25.339Z,20.35
2023-01-08T16:53:52.002Z,21.38
2023-01-08T16:56:18.655Z,22.65
2023-01-08T16:58:45.366Z,22.83
2023-01-08T17:01:12.766Z,23.58
2023-01-08T17:03:39.543Z,23.17
2023-01-08T17:06:08.426Z,22.65
2023-01-08T17:08:39.937Z,22.02
2023-01-08T17:11:09.640Z,22.38
2023-01-08T17:13:36.910Z,22.42
2023-01-08T17:16:05.321Z,23.08
2023-01-08T17:18:32.014Z,22.77
2023-01-08T17:20:58.759Z,25.88
2023-01-08T17:23:28.722Z,26.58
2023-01-08T17:25:56.855Z,26.50
2023-01-08T17:28:26.449Z,26.67
2023-01-08T17:30:53.207Z,26.55
2023-01-08T17:33:19.975Z,24.60
2023-01-08T17:35:48.293Z,23.80
2023-01-08T17:38:14.887Z,23.92
2023-01-08T17:40:41.500Z,24.75
2023-01-08T17:43:08.119Z,24.98
2023-01-08T17:45:38.679Z,23.13
2023-01-08T17:48:05.850Z,22.90
2023-01-08T17:50:32.644Z,22.55
2023-01-08T17:52:59.751Z,21.40
2023-01-08T17:55:26.959Z,19.88
2023-01-08T17:57:53.553Z,18.70
2023-01-08T18:00:20.702Z,18.83
2023-01-08T18:02:47.325Z,21.60
2023-01-08T18:05:14.001Z,21.73
2023-01-08T18:07:40.564Z,17.17
2023-01-08T18:10:08.163Z,17.25
2023-01-08T18:12:34.801Z,17.98
2023-01-08T18:15:01.441Z,20.10
2023-01-08T18:17:30.695Z,20.83
2023-01-08T18:19:57.324Z,24.27
2023-01-08T18:22:24.521Z,24.80
2023-01-08T18:24:51.080Z,26.20
2023-01-08T18:27:17.694Z,26.60
2023-01-08T18:29:44.299Z,29.98
2023-01-08T18:32:10.947Z,27.40
2023-01-08T18:34:38.986Z,27.90
2023-01-08T18:37:05.572Z,27.88
2023-01-08T18:39:32.349Z,29.45
2023-01-08T18:42:14.183Z,27.75
2023-01-08T18:44:40.773Z,26.25
2023-01-08T18:47:07.363Z,28.17
2023-01-08T18:49:34.029Z,27.70
2023-01-08T18:52:00.660Z,27.23
2023-01-08T18:54:27.395Z,27.10
2023-01-08T18:56:54.011Z,28.42
2023-01-08T18:59:20.787Z,29.00
2023-01-08T19:01:47.493Z,29.70
2023-01-08T19:04:17.085Z,27.55
2023-01-08T19:06:43.720Z,29.55
2023-01-08T19:09:10.351Z,27.58
2023-01-08T19:11:37.003Z,27.58
2023-01-08T19:14:04.144Z,26.05
2023-01-08T19:16:30.932Z,27.58
2023-01-08T19:18:57.733Z,29.08
2023-01-08T19:21:24.609Z,30.02
2023-01-08T19:23:51.253Z,27.55
2023-01-08T19:26:17.927Z,27.10
2023-01-08T19:28:44.605Z,30.33
2023-01-08T19:31:14.704Z,30.23
2023-01-08T19:33:42.031Z,27.20
2023-01-08T19:36:12.477Z,27.75
2023-01-08T19:38:40.348Z,25.70
2023-01-08T19:41:22.855Z,25.95
2023-01-08T19:43:49.520Z,25.10
2023-01-08T19:46:18.140Z,24.35
2023-01-08T19:48:45.605Z,24.55
2023-01-08T19:51:13.342Z,23.00
2023-01-08T19:53:40.404Z,25.38
2023-01-08T19:56:10.953Z,24.45
2023-01-08T19:58:37.775Z,22.48
2023-01-08T20:01:14.936Z,22.40
2023-01-08T20:03:50.817Z,21.05
2023-01-08T20:06:20.400Z,21.48
2023-01-08T20:08:48.587Z,18.80
2023-01-08T20:11:17.062Z,21.13
2023-01-08T20:13:44.399Z,19.60
2023-01-08T20:16:15.002Z,20.23
2023-01-08T20:18:42.057Z,20.95
2023-01-08T20:21:13.379Z,19.38
2023-01-08T20:23:40.073Z,19.95
2023-01-08T20:26:10.384Z,19.92
2023-01-08T20:28:39.359Z,20.58
2023-01-08T20:31:07.230Z,20.30
2023-01-08T20:33:35.472Z,19.20
2023-01-08T20:36:07.147Z,19.88
2023-01-08T20:38:33.744Z,20.65
2023-01-08T20:41:00.375Z,20.75
2023-01-08T20:43:27.083Z,22.35
2023-01-08T20:45:53.947Z,22.15
2023-01-08T20:48:20.626Z,20.20
2023-01-08T20:50:55.139Z,22.52
2023-01-08T20:53:22.418Z,20.88
2023-01-08T20:55:49.298Z,22.52
2023-01-08T20:58:16.517Z,21.85
2023-01-08T21:00:43.203Z,22.02
2023-01-08T21:03:10.665Z,21.83
2023-01-08T21:05:38.457Z,20.83
2023-01-08T21:08:06.780Z,20.50
2023-01-08T21:10:34.555Z,20.02
2023-01-08T21:13:01.453Z,20.30
2023-01-08T21:15:28.191Z,21.38
2023-01-08T21:17:54.876Z,21.17
2023-01-08T21:20:21.569Z,19.33
2023-01-08T21:22:48.223Z,20.23
2023-01-08T21:25:14.863Z,19.88
2023-01-08T21:27:41.485Z,20.83
2023-01-08T21:30:08.826Z,22.77
2023-01-08T21:32:37.244Z,21.48
2023-01-08T21:35:04.100Z,20.83
2023-01-08T21:37:31.642Z,21.42
2023-01-08T21:39:58.231Z,21.38
2023-01-08T21:42:40.182Z,20.63
2023-01-08T21:45:22.693Z,19.15
2023-01-08T21:47:49.297Z,17.85
2023-01-08T21:50:16.280Z,19.58
2023-01-08T21:52:58.124Z,18.00
2023-01-08T21:55:24.714Z,16.33
2023-01-08T21:57:51.323Z,17.92
2023-01-08T22:00:18.222Z,18.20
2023-01-08T22:02:44.835Z,16.75
2023-01-08T22:05:11.540Z,16.67
2023-01-08T22:07:38.177Z,18.08
2023-01-08T22:10:05.715Z,16.33
2023-01-08T22:12:32.288Z,16.60
2023-01-08T22:14:58.917Z,16.48
2023-01-08T22:17:26.582Z,14.98
2023-01-08T22:19:57.954Z,14.80
2023-01-08T22:22:28.371Z,15.18
2023-01-08T22:24:54.968Z,14.70
2023-01-08T22:27:21.896Z,16.02
2023-01-08T22:29:49.028Z,15.98
2023-01-08T22:32:15.714Z,15.57
2023-01-08T22:34:42.315Z,14.88
2023-01-08T22:37:08.946Z,15.40
2023-01-08T22:39:35.531Z,15.82
2023-01-08T22:42:02.084Z,16.48
2023-01-08T22:44:28.773Z,16.05
2023-01-08T22:46:56.514Z,15.90
2023-01-08T22:49:23.261Z,16.77
2023-01-08T22:51:49.815Z,14.93
2023-01-08T22:54:18.076Z,16.20
2023-01-08T22:56:44.686Z,17.08
2023-01-08T22:59:11.341Z,15.77
2023-01-08T23:01:38.005Z,15.85
2023-01-08T23:04:04.941Z,15.98
2023-01-08T23:06:32.131Z,16.40
2023-01-08T23:08:59.393Z,17.30
2023-01-08T23:11:26.514Z,17.30
2023-01-08T23:13:53.737Z,16.08
2023-01-08T23:16:25.732Z,17.90
2023-01-08T23:18:54.613Z,18.00
2023-01-08T23:21:23.882Z,17.33
2023-01-08T23:23:51.185Z,16.63
2023-01-08T23:26:21.443Z,17.77
2023-01-08T23:28:49.567Z,17.50
2023-01-08T23:31:19.744Z,17.90
2023-01-08T23:33:47.026Z,18.10
2023-01-08T23:36:19.103Z,18.08
2023-01-08T23:38:46.920Z,18.00
2023-01-08T23:41:14.303Z,19.35
2023-01-08T23:43:41.313Z,18.88
2023-01-08T23:46:08.263Z,18.15
2023-01-08T23:48:34.916Z,19.65
2023-01-08T23:51:01.842Z,19.02
2023-01-08T23:53:28.458Z,18.40
2023-01-08T23:55:55.074Z,17.42
2023-01-08T23:58:21.777Z,18.30
